Tweets

Valley Met

taf

  • TAF EGOV 031328Z 0315/0318 31014KT 9999 FEW022 SCT040

Gallery

Expand all | Collapse all


Chris’s Daily Photo

Subscribe to:

FourFax Stats

  • Total Stats
    • 316 Posts
    • 158 Comments
    • 48 Comment Posters
    • 28 Links
    • 7 Post Categories
    • 4 Link Categories

Archives